createdAt,value
2018-06-10T00:01:58.920Z,72.89
2018-06-10T00:07:02.101Z,74.07
2018-06-10T00:12:05.293Z,74.09
2018-06-10T00:22:28.569Z,75.44
2018-06-10T00:27:31.794Z,74.94
2018-06-10T00:32:34.882Z,74.37
2018-06-10T00:37:38.056Z,76.02
2018-06-10T00:42:41.264Z,75.24
2018-06-10T00:47:44.393Z,76.18
2018-06-10T00:52:47.742Z,76.14
2018-06-10T00:57:51.013Z,77.09
2018-06-10T01:02:54.146Z,77.77
2018-06-10T01:07:57.357Z,77.32
2018-06-10T01:13:00.495Z,77.98
2018-06-10T01:18:04.236Z,78.17
2018-06-10T01:23:07.343Z,78.06
2018-06-10T01:28:10.503Z,78.13
2018-06-10T01:33:13.588Z,78.03
2018-06-10T01:38:16.662Z,78.72
2018-06-10T01:43:19.838Z,78.96
2018-06-10T01:48:23.652Z,79.38
2018-06-10T01:53:26.756Z,79.48
2018-06-10T01:58:29.958Z,79.87
2018-06-10T02:03:33.059Z,79.54
2018-06-10T02:08:36.534Z,79.62
2018-06-10T02:13:39.659Z,79.88
2018-06-10T02:18:42.761Z,80.47
2018-06-10T02:23:45.890Z,81.15
2018-06-10T02:28:48.967Z,80.83
2018-06-10T02:33:52.158Z,80.27
2018-06-10T02:38:55.224Z,80.82
2018-06-10T02:43:58.373Z,80.68
2018-06-10T02:49:01.482Z,80.56
2018-06-10T02:54:04.794Z,80.49
2018-06-10T02:59:08.075Z,81.39
2018-06-10T03:04:11.229Z,81.24
2018-06-10T03:09:14.388Z,80.25
2018-06-10T03:14:17.595Z,79.32
2018-06-10T03:19:20.698Z,79.47
2018-06-10T03:24:23.923Z,78.01
2018-06-10T03:29:27.049Z,77.11
2018-06-10T03:34:30.200Z,75.88
2018-06-10T03:39:33.348Z,76.29
2018-06-10T03:44:36.533Z,75.96
2018-06-10T03:49:39.767Z,75.09
2018-06-10T03:54:43.169Z,74.66
2018-06-10T03:59:46.436Z,73.16
2018-06-10T04:04:49.659Z,72.30
2018-06-10T04:09:52.824Z,72.53
2018-06-10T04:14:55.929Z,70.81
2018-06-10T04:19:59.084Z,70.41
2018-06-10T04:25:02.180Z,70.79
2018-06-10T04:30:05.266Z,69.28
2018-06-10T04:35:08.431Z,59.74
2018-06-10T04:40:11.604Z,49.78
2018-06-10T04:45:14.845Z,50.80
2018-06-10T04:50:18.081Z,43.51
2018-06-10T04:55:21.394Z,41.26
2018-06-10T05:00:25.630Z,46.03
2018-06-10T05:05:29.162Z,52.09
2018-06-10T05:10:32.459Z,52.87
2018-06-10T05:15:36.179Z,52.69
2018-06-10T05:20:39.332Z,47.94
2018-06-10T05:25:42.593Z,40.85
2018-06-10T05:30:45.735Z,36.97
2018-06-10T05:35:48.895Z,35.38
2018-06-10T05:40:52.024Z,32.36
2018-06-10T05:45:55.129Z,28.65
2018-06-10T05:50:58.340Z,26.04
2018-06-10T05:56:01.481Z,26.84
2018-06-10T06:01:04.691Z,24.71
2018-06-10T06:06:08.613Z,24.20
2018-06-10T06:11:11.721Z,23.88
2018-06-10T06:16:14.922Z,26.31
2018-06-10T06:21:18.079Z,26.12
2018-06-10T06:26:21.209Z,24.92
2018-06-10T06:31:24.435Z,25.20
2018-06-10T06:36:27.673Z,24.71
2018-06-10T06:41:30.749Z,28.16
2018-06-10T06:46:33.872Z,27.08
2018-06-10T06:51:37.020Z,23.67
2018-06-10T06:56:40.152Z,23.61
2018-06-10T07:01:43.287Z,21.14
2018-06-10T07:06:46.389Z,24.18
2018-06-10T07:11:49.602Z,24.09
2018-06-10T07:16:52.887Z,25.49
2018-06-10T07:21:56.011Z,28.28
2018-06-10T07:26:59.132Z,25.26
2018-06-10T07:32:02.245Z,24.20
2018-06-10T07:37:05.360Z,22.40
2018-06-10T07:42:08.502Z,19.57
2018-06-10T07:47:11.584Z,22.42
2018-06-10T07:52:14.732Z,23.73
2018-06-10T07:57:17.892Z,22.24
2018-06-10T08:02:21.024Z,23.41
2018-06-10T08:07:24.131Z,21.96
2018-06-10T08:12:27.294Z,22.35
2018-06-10T08:17:30.415Z,22.47
2018-06-10T08:22:33.542Z,20.19
2018-06-10T08:27:36.907Z,21.51
2018-06-10T08:32:40.086Z,21.53
2018-06-10T08:37:43.224Z,20.87
2018-06-10T08:42:47.318Z,20.74
2018-06-10T08:47:50.484Z,20.66
2018-06-10T08:52:53.670Z,21.04
2018-06-10T08:57:56.816Z,21.34
2018-06-10T09:02:59.936Z,21.02
2018-06-10T09:08:03.079Z,20.45
2018-06-10T09:13:06.182Z,23.50
2018-06-10T09:18:09.281Z,22.43
2018-06-10T09:23:12.440Z,26.33
2018-06-10T09:28:15.662Z,26.72
2018-06-10T09:33:18.953Z,25.81
2018-06-10T09:38:22.048Z,24.41
2018-06-10T09:43:25.176Z,22.23
2018-06-10T09:48:28.303Z,22.17
2018-06-10T09:53:31.369Z,23.16
2018-06-10T09:58:34.866Z,25.19
2018-06-10T10:03:37.918Z,26.81
2018-06-10T10:08:41.023Z,26.83
2018-06-10T10:13:44.108Z,23.86
2018-06-10T10:18:47.277Z,26.45
2018-06-10T10:23:50.411Z,26.27
2018-06-10T10:28:53.557Z,26.12
2018-06-10T10:33:56.722Z,26.04
2018-06-10T10:38:59.818Z,25.18
2018-06-10T10:44:03.043Z,26.67
2018-06-10T10:49:06.265Z,28.19
2018-06-10T10:54:09.362Z,29.40
2018-06-10T10:59:12.501Z,30.47
2018-06-10T11:04:15.620Z,29.13
2018-06-10T11:09:18.799Z,28.06
2018-06-10T11:14:22.132Z,28.61
2018-06-10T11:19:25.356Z,28.13
2018-06-10T11:24:28.549Z,28.13
2018-06-10T11:29:31.672Z,29.20
2018-06-10T11:34:42.106Z,31.20
2018-06-10T11:45:03.912Z,32.83
2018-06-10T11:50:07.252Z,33.53
2018-06-10T11:55:10.383Z,32.24
2018-06-10T12:00:13.474Z,33.40
2018-06-10T12:05:16.690Z,33.74
2018-06-10T12:10:19.808Z,34.08
2018-06-10T12:15:22.898Z,36.59
2018-06-10T12:20:26.834Z,36.92
2018-06-10T12:25:30.369Z,38.08
2018-06-10T12:30:33.584Z,37.73
2018-06-10T12:35:36.758Z,35.47
2018-06-10T12:40:39.914Z,36.99
2018-06-10T12:45:43.220Z,41.13
2018-06-10T12:50:46.435Z,44.88
2018-06-10T12:55:49.645Z,47.33
2018-06-10T13:00:52.825Z,54.62
2018-06-10T13:05:56.022Z,53.46
2018-06-10T13:10:59.130Z,52.41
2018-06-10T13:16:02.238Z,50.02
2018-06-10T13:21:05.356Z,49.11
2018-06-10T13:26:08.424Z,46.82
2018-06-10T13:31:11.554Z,45.78
2018-06-10T13:36:14.757Z,45.74
2018-06-10T13:41:18.054Z,45.02
2018-06-10T13:46:21.440Z,46.67
2018-06-10T13:51:24.730Z,48.44
2018-06-10T13:56:27.983Z,44.62
2018-06-10T14:01:31.169Z,45.49
2018-06-10T14:06:34.263Z,47.67
2018-06-10T14:11:37.405Z,47.95
2018-06-10T14:16:40.565Z,54.00
2018-06-10T14:21:44.519Z,51.24
2018-06-10T14:26:47.824Z,53.11
2018-06-10T14:31:50.915Z,54.21
2018-06-10T14:36:54.121Z,56.06
2018-06-10T14:41:57.308Z,55.61
2018-06-10T14:47:00.484Z,52.12
2018-06-10T14:52:03.608Z,53.15
2018-06-10T14:57:06.824Z,56.63
2018-06-10T15:02:10.142Z,54.71
2018-06-10T15:07:13.274Z,54.25
2018-06-10T15:12:16.557Z,55.49
2018-06-10T15:17:21.895Z,56.71
2018-06-10T15:22:25.322Z,58.71
2018-06-10T15:27:28.440Z,58.35
2018-06-10T15:32:32.623Z,58.13
2018-06-10T15:37:35.876Z,55.79
2018-06-10T15:42:40.302Z,54.02
2018-06-10T15:47:44.153Z,51.81
2018-06-10T15:52:47.554Z,49.87
2018-06-10T15:57:51.513Z,51.69
2018-06-10T16:02:54.921Z,54.23
2018-06-10T16:07:58.509Z,55.60
2018-06-10T16:13:02.580Z,55.95
2018-06-10T16:18:06.142Z,56.23
2018-06-10T16:23:09.285Z,56.29
2018-06-10T16:28:12.394Z,59.05
2018-06-10T16:33:15.583Z,58.30
2018-06-10T16:38:18.803Z,58.73
2018-06-10T16:43:22.700Z,61.38
2018-06-10T16:48:26.435Z,62.56
2018-06-10T16:53:29.860Z,64.06
2018-06-10T16:58:33.593Z,64.50
2018-06-10T17:03:36.946Z,66.08
2018-06-10T17:08:40.199Z,67.13
2018-06-10T17:13:43.273Z,67.35
2018-06-10T17:18:46.811Z,67.93
2018-06-10T17:23:50.185Z,68.60
2018-06-10T17:28:53.322Z,69.43
2018-06-10T17:33:56.531Z,70.27
2018-06-10T17:38:59.669Z,69.66
2018-06-10T17:44:03.226Z,69.78
2018-06-10T17:49:06.381Z,70.29
2018-06-10T17:54:09.488Z,70.10
2018-06-10T17:59:12.684Z,69.59
2018-06-10T18:04:16.300Z,70.09
2018-06-10T18:09:20.029Z,69.31
2018-06-10T18:14:23.158Z,67.84
2018-06-10T18:19:26.426Z,66.49
2018-06-10T18:24:29.638Z,66.55
2018-06-10T18:29:32.767Z,68.44
2018-06-10T18:34:40.151Z,68.48
2018-06-10T18:39:43.289Z,69.09
2018-06-10T18:44:48.261Z,68.35
2018-06-10T18:49:51.599Z,67.66
2018-06-10T18:54:54.730Z,69.82
2018-06-10T18:59:59.240Z,69.33
2018-06-10T19:05:03.159Z,69.82
2018-06-10T19:10:06.523Z,71.37
2018-06-10T19:15:09.619Z,70.81
2018-06-10T19:20:12.933Z,72.81
2018-06-10T19:25:17.085Z,73.18
2018-06-10T19:30:20.920Z,74.58
2018-06-10T19:35:27.001Z,74.40
2018-06-10T19:40:30.700Z,75.76
2018-06-10T19:45:34.937Z,76.60
2018-06-10T19:50:38.996Z,76.90
2018-06-10T19:55:42.126Z,77.51
2018-06-10T20:00:45.763Z,77.34
2018-06-10T20:05:49.605Z,77.68
2018-06-10T20:10:52.957Z,78.19
2018-06-10T20:15:56.041Z,77.82
2018-06-10T20:20:59.757Z,76.22
2018-06-10T20:26:03.544Z,75.42
2018-06-10T20:31:07.973Z,75.81
2018-06-10T20:36:13.162Z,75.62
2018-06-10T20:41:19.230Z,75.16
2018-06-10T20:46:22.475Z,75.88
2018-06-10T20:51:25.827Z,75.32
2018-06-10T20:56:29.005Z,76.10
2018-06-10T21:01:32.243Z,75.64
2018-06-10T21:06:35.357Z,76.27
2018-06-10T21:11:38.884Z,75.70
2018-06-10T21:16:41.968Z,75.04
2018-06-10T21:21:45.266Z,75.69
2018-06-10T21:26:48.651Z,76.16
2018-06-10T21:31:52.208Z,76.33
2018-06-10T21:36:55.431Z,76.98
2018-06-10T21:41:58.699Z,77.04
2018-06-10T21:47:01.789Z,78.58
2018-06-10T21:52:05.023Z,78.60
2018-06-10T21:57:08.129Z,79.44
2018-06-10T22:02:11.283Z,79.66
2018-06-10T22:07:14.472Z,79.47
2018-06-10T22:12:17.735Z,80.23
2018-06-10T22:17:21.054Z,80.66
2018-06-10T22:22:24.264Z,80.93
2018-06-10T22:27:27.352Z,80.01
2018-06-10T22:32:30.446Z,80.09
2018-06-10T22:37:33.563Z,80.57
2018-06-10T22:42:36.696Z,79.72
2018-06-10T22:47:43.770Z,79.85
2018-06-10T22:52:47.743Z,79.64
2018-06-10T22:57:50.978Z,80.01
2018-06-10T23:02:54.199Z,79.87
2018-06-10T23:07:57.437Z,79.88
2018-06-10T23:13:00.785Z,80.28
2018-06-10T23:18:03.873Z,79.93
2018-06-10T23:23:06.967Z,80.56
2018-06-10T23:28:11.727Z,80.60
2018-06-10T23:33:15.151Z,79.80
2018-06-10T23:38:19.225Z,79.60
2018-06-10T23:43:23.373Z,78.23
2018-06-10T23:48:26.676Z,76.70
2018-06-10T23:53:31.938Z,76.56
2018-06-10T23:58:35.016Z,76.84
